Time;durP1;ratioP1;P1;durP2;ratioP2;P2;SDS_P1;SDS_P2;PMS_P1;PMS_P2;Temp;Humidity;BMP_temperature;BMP_pressure;BME280_temperature;BME280_humidity;BME280_pressure;Samples;Min_cycle;Max_cycle;Signal;HPM_P1;HPM_P2
2022/05/01 00:01:33;;;;;;;;;;;8.80;99.90;;;;;;2622113;47;19935;31
2022/05/01 00:04:06;;;;;;;;;;;8.80;99.90;;;;;;2622022;47;20740;31
2022/05/01 00:06:40;;;;;;;;;;;8.80;99.90;;;;;;2603503;54;19997;31
2022/05/01 00:09:17;;;;;;;;;;;9.10;99.90;;;;;;2603531;54;20745;31
2022/05/01 00:11:49;;;;;;;;;;;8.70;99.90;;;;;;2603745;54;19989;31
2022/05/01 00:14:24;;;;;;;;;;;8.60;99.90;;;;;;2603765;54;19935;31
2022/05/01 00:16:59;;;;;;;;;;;8.60;99.90;;;;;;2622151;47;20017;31
2022/05/01 00:19:33;;;;;;;;;;;8.60;99.90;;;;;;2609350;47;19934;31
2022/05/01 00:22:24;;;;;;;;;;;9.00;99.90;;;;;;2603587;54;19934;31
2022/05/01 00:25:00;;;;;;;;;;;8.50;99.90;;;;;;2603634;54;19934;31
2022/05/01 00:27:32;;;;;;;;;;;8.50;99.90;;;;;;2603475;54;20786;31
2022/05/01 00:30:07;;;;;;;;;;;8.50;99.90;;;;;;2622146;47;19939;31
2022/05/01 00:38:13;;;;;;;;;;;8.40;99.90;;;;;;2622343;47;19935;31
2022/05/01 00:40:50;;;;;;;;;;;8.40;99.90;;;;;;2622113;47;19941;31
2022/05/01 00:43:22;;;;;;;;;;;8.40;99.90;;;;;;2621900;47;19934;31
2022/05/01 00:45:56;;;;;;;;;;;8.30;99.90;;;;;;2603518;54;19997;31
2022/05/01 00:48:30;;;;;;;;;;;8.30;99.90;;;;;;2603524;54;19961;31
2022/05/01 00:51:04;;;;;;;;;;;8.20;99.90;;;;;;2603598;54;20766;31
2022/05/01 00:53:38;;;;;;;;;;;8.20;99.90;;;;;;2621984;47;19954;31
2022/05/01 00:56:15;;;;;;;;;;;8.20;99.90;;;;;;2603262;54;19941;31
2022/05/01 00:58:47;;;;;;;;;;;8.20;99.90;;;;;;2603524;54;19942;31
2022/05/01 01:01:21;;;;;;;;;;;8.10;99.90;;;;;;2603317;54;19981;31
2022/05/01 01:03:55;;;;;;;;;;;8.10;99.90;;;;;;2603878;54;19950;31
2022/05/01 01:06:29;;;;;;;;;;;8.00;99.90;;;;;;2604151;54;20056;31
2022/05/01 01:09:03;;;;;;;;;;;8.00;99.90;;;;;;2622514;46;19950;31
2022/05/01 01:11:40;;;;;;;;;;;8.00;99.90;;;;;;2603979;54;20794;31
2022/05/01 01:14:15;;;;;;;;;;;8.00;99.90;;;;;;2604185;54;19941;31
2022/05/01 01:16:50;;;;;;;;;;;7.90;99.90;;;;;;2604337;54;20775;31
2022/05/01 01:19:24;;;;;;;;;;;7.90;99.90;;;;;;2622763;46;19935;31
2022/05/01 01:22:01;;;;;;;;;;;7.80;99.90;;;;;;2622535;46;19938;31
2022/05/01 01:24:32;;;;;;;;;;;7.80;99.90;;;;;;2702920;39;20946;31
2022/05/01 01:27:06;;;;;;;;;;;7.80;99.90;;;;;;2604028;54;20761;31
2022/05/01 01:32:29;;;;;;;;;;;7.80;99.90;;;;;;2622480;46;19934;31
2022/05/01 01:35:03;;;;;;;;;;;7.80;99.90;;;;;;2622573;46;19938;31
2022/05/01 01:37:40;;;;;;;;;;;7.80;99.90;;;;;;2622439;46;19941;31
2022/05/01 01:40:14;;;;;;;;;;;7.80;99.90;;;;;;2622635;46;19935;31
2022/05/01 01:42:48;;;;;;;;;;;7.80;99.90;;;;;;2622394;46;19935;31
2022/05/01 01:45:22;;;;;;;;;;;7.70;99.90;;;;;;2604259;54;19943;31
2022/05/01 01:47:56;;;;;;;;;;;7.70;99.90;;;;;;2622684;46;20795;31
2022/05/01 01:50:30;;;;;;;;;;;7.70;99.90;;;;;;2603263;54;20009;31
2022/05/01 01:53:08;;;;;;;;;;;7.70;99.90;;;;;;2604103;54;19981;31
2022/05/01 01:55:42;;;;;;;;;;;7.70;99.90;;;;;;2604047;54;20753;31
2022/05/01 01:58:16;;;;;;;;;;;7.70;99.90;;;;;;2604125;54;19935;31
2022/05/01 02:00:50;;;;;;;;;;;7.60;99.90;;;;;;2604013;54;20781;31
2022/05/01 02:03:25;;;;;;;;;;;7.60;99.90;;;;;;2604083;54;19958;31
2022/05/01 02:05:59;;;;;;;;;;;7.60;99.90;;;;;;2604191;54;19935;31
2022/05/01 02:08:36;;;;;;;;;;;7.60;99.90;;;;;;2622534;46;19942;31
2022/05/01 02:11:10;;;;;;;;;;;7.50;99.90;;;;;;2622483;46;20737;31
2022/05/01 02:13:44;;;;;;;;;;;7.40;99.90;;;;;;2603945;54;20757;31
2022/05/01 02:16:19;;;;;;;;;;;7.30;99.90;;;;;;2622590;46;19979;31
2022/05/01 02:18:53;;;;;;;;;;;7.30;99.90;;;;;;2603998;54;19985;31
2022/05/01 02:21:40;;;;;;;;;;;7.30;99.90;;;;;;2622488;46;19942;31
2022/05/01 02:24:15;;;;;;;;;;;7.20;99.90;;;;;;2603811;54;19951;31
2022/05/01 02:26:49;;;;;;;;;;;7.20;99.90;;;;;;2604152;54;19953;31
2022/05/01 02:29:23;;;;;;;;;;;7.20;99.90;;;;;;2603972;54;20757;31
2022/05/01 02:31:57;;;;;;;;;;;7.10;99.90;;;;;;2622567;46;19934;31
2022/05/01 02:34:31;;;;;;;;;;;7.10;99.90;;;;;;2603946;54;20758;31
2022/05/01 02:37:06;;;;;;;;;;;7.10;99.90;;;;;;2603867;54;20798;31
2022/05/01 02:39:43;;;;;;;;;;;7.10;99.90;;;;;;2604088;54;20876;31
2022/05/01 02:42:19;;;;;;;;;;;7.00;99.90;;;;;;2604284;54;19935;31
2022/05/01 02:44:51;;;;;;;;;;;7.00;99.90;;;;;;2622269;46;19942;31
2022/05/01 02:47:25;;;;;;;;;;;7.00;99.90;;;;;;2622495;46;19961;31
2022/05/01 02:49:59;;;;;;;;;;;7.00;99.90;;;;;;2603870;54;20798;31
2022/05/01 02:52:33;;;;;;;;;;;6.90;99.90;;;;;;2604202;54;19934;31
2022/05/01 02:55:10;;;;;;;;;;;6.90;99.90;;;;;;2622504;46;19941;31
2022/05/01 02:57:44;;;;;;;;;;;7.00;99.90;;;;;;2604056;54;20751;31
2022/05/01 03:00:22;;;;;;;;;;;6.90;99.90;;;;;;2622150;46;20046;31
2022/05/01 03:02:55;;;;;;;;;;;6.90;99.90;;;;;;2604051;54;19934;31
2022/05/01 03:05:30;;;;;;;;;;;6.90;99.90;;;;;;2622364;46;19989;31
2022/05/01 03:08:04;;;;;;;;;;;6.80;99.90;;;;;;2604024;54;20763;31
2022/05/01 03:10:38;;;;;;;;;;;6.80;99.90;;;;;;2622491;46;19935;31
2022/05/01 03:13:10;;;;;;;;;;;6.80;99.90;;;;;;2603983;54;19969;31
2022/05/01 03:15:44;;;;;;;;;;;6.80;99.90;;;;;;2603797;54;20029;31
2022/05/01 03:23:50;;;;;;;;;;;6.60;99.90;;;;;;2622374;46;19942;31
2022/05/01 03:26:27;;;;;;;;;;;6.60;99.90;;;;;;2622483;46;19935;31
2022/05/01 03:29:01;;;;;;;;;;;6.60;99.90;;;;;;2622308;46;19993;31
2022/05/01 03:31:37;;;;;;;;;;;6.60;99.90;;;;;;2603803;54;20782;31
2022/05/01 03:34:11;;;;;;;;;;;6.50;99.90;;;;;;2603099;54;20719;31
2022/05/01 03:36:45;;;;;;;;;;;6.50;99.90;;;;;;2622148;46;19942;31
2022/05/01 03:39:19;;;;;;;;;;;6.50;99.90;;;;;;2603793;54;19942;31
2022/05/01 03:41:56;;;;;;;;;;;6.50;99.90;;;;;;2603678;54;20777;31
2022/05/01 03:44:30;;;;;;;;;;;6.50;99.90;;;;;;2603583;54;19935;31
2022/05/01 03:47:04;;;;;;;;;;;6.50;99.90;;;;;;2603589;54;19997;31
2022/05/01 03:49:37;;;;;;;;;;;6.50;99.90;;;;;;2603754;54;19934;31
2022/05/01 03:52:12;;;;;;;;;;;6.50;99.90;;;;;;2603637;54;19939;31
2022/05/01 03:54:46;;;;;;;;;;;6.40;99.90;;;;;;2603622;54;19935;31
2022/05/01 03:57:24;;;;;;;;;;;6.40;99.90;;;;;;2603646;54;19935;31
2022/05/01 04:00:01;;;;;;;;;;;6.40;99.90;;;;;;2603549;54;20013;31
2022/05/01 04:02:42;;;;;;;;;;;6.40;99.90;;;;;;2603844;54;20746;31
2022/05/01 04:05:15;;;;;;;;;;;6.40;99.90;;;;;;2621939;47;19934;31
2022/05/01 04:07:47;;;;;;;;;;;6.40;99.90;;;;;;2702215;39;20935;31
2022/05/01 04:10:21;;;;;;;;;;;6.40;99.90;;;;;;2603719;54;19946;31
2022/05/01 04:12:55;;;;;;;;;;;6.40;99.90;;;;;;2603691;54;19942;31
2022/05/01 04:15:33;;;;;;;;;;;6.50;99.90;;;;;;2603608;54;20784;31
2022/05/01 04:18:08;;;;;;;;;;;6.50;99.90;;;;;;2622320;47;19935;31
2022/05/01 04:20:40;;;;;;;;;;;6.60;99.90;;;;;;2603361;54;19935;31
2022/05/01 04:23:14;;;;;;;;;;;6.70;99.90;;;;;;2621997;47;19947;31
2022/05/01 04:25:47;;;;;;;;;;;6.70;99.90;;;;;;2773674;31;21014;31
2022/05/01 04:28:21;;;;;;;;;;;6.80;99.90;;;;;;2622051;47;19941;31
2022/05/01 04:30:58;;;;;;;;;;;6.90;99.90;;;;;;2622241;47;19935;31
2022/05/01 04:33:32;;;;;;;;;;;7.10;99.90;;;;;;2603168;54;19935;31
2022/05/01 04:36:07;;;;;;;;;;;7.30;99.90;;;;;;2621695;47;20013;31
2022/05/01 04:38:41;;;;;;;;;;;7.40;99.90;;;;;;2604077;54;20841;31
2022/05/01 04:41:16;;;;;;;;;;;7.60;99.90;;;;;;2622717;46;20757;31
2022/05/01 04:43:50;;;;;;;;;;;7.70;99.90;;;;;;2604173;54;20009;31
2022/05/01 04:46:28;;;;;;;;;;;7.90;99.90;;;;;;2604279;54;19946;31
2022/05/01 04:49:02;;;;;;;;;;;8.40;99.90;;;;;;2604061;54;19934;31
2022/05/01 04:51:36;;;;;;;;;;;8.20;99.90;;;;;;2622840;46;19941;31
2022/05/01 04:54:10;;;;;;;;;;;8.30;99.90;;;;;;2604263;54;19935;31
2022/05/01 04:59:31;;;;;;;;;;;8.70;99.90;;;;;;2622775;46;20795;31
2022/05/01 05:02:09;;;;;;;;;;;8.80;99.90;;;;;;2622721;46;19941;31
2022/05/01 05:04:43;;;;;;;;;;;9.00;99.90;;;;;;2604209;54;19946;31
2022/05/01 05:07:17;;;;;;;;;;;9.20;99.90;;;;;;2603995;54;20768;31
2022/05/01 05:09:55;;;;;;;;;;;9.60;99.90;;;;;;2604181;54;19953;31
2022/05/01 05:12:27;;;;;;;;;;;9.90;99.90;;;;;;2604229;54;20729;31
2022/05/01 05:15:02;;;;;;;;;;;10.20;99.90;;;;;;2622740;46;19961;31
2022/05/01 05:17:39;;;;;;;;;;;10.40;99.90;;;;;;2604061;54;20848;31
2022/05/01 05:20:12;;;;;;;;;;;10.60;99.90;;;;;;2603975;54;19935;31
2022/05/01 05:22:47;;;;;;;;;;;10.80;99.90;;;;;;2604300;54;19961;31
2022/05/01 05:25:21;;;;;;;;;;;11.00;99.90;;;;;;2604337;54;19989;31
2022/05/01 05:27:55;;;;;;;;;;;11.10;99.90;;;;;;2622816;46;19935;31
2022/05/01 05:30:29;;;;;;;;;;;11.30;99.90;;;;;;2622577;46;19941;31
2022/05/01 05:33:06;;;;;;;;;;;11.40;99.90;;;;;;2604119;54;19942;31
2022/05/01 05:35:41;;;;;;;;;;;11.60;99.90;;;;;;2622647;46;19963;31
2022/05/01 05:38:16;;;;;;;;;;;11.70;99.90;;;;;;2604046;54;19935;31
2022/05/01 05:40:50;;;;;;;;;;;11.90;99.90;;;;;;2622605;46;19989;31
2022/05/01 05:43:24;;;;;;;;;;;12.00;99.90;;;;;;2604242;54;19943;31
2022/05/01 05:45:58;;;;;;;;;;;12.10;99.90;;;;;;2622480;46;19997;31
2022/05/01 05:48:37;;;;;;;;;;;12.10;99.90;;;;;;2702689;39;20357;31
2022/05/01 05:51:09;;;;;;;;;;;12.30;99.90;;;;;;2622422;46;19935;31
2022/05/01 05:53:43;;;;;;;;;;;12.50;99.90;;;;;;2622554;46;19997;31
2022/05/01 05:56:17;;;;;;;;;;;12.60;99.90;;;;;;2603391;54;20500;31
2022/05/01 05:58:52;;;;;;;;;;;12.80;99.90;;;;;;2604005;54;20723;31
2022/05/01 06:01:26;;;;;;;;;;;13.00;99.90;;;;;;2702433;39;21222;31
2022/05/01 06:04:03;;;;;;;;;;;13.30;99.90;;;;;;2622579;46;19939;31
2022/05/01 06:06:37;;;;;;;;;;;13.50;99.90;;;;;;2702466;39;20489;31
2022/05/01 06:09:11;;;;;;;;;;;13.70;99.90;;;;;;2622301;46;19942;31
2022/05/01 06:11:45;;;;;;;;;;;13.90;99.90;;;;;;2622729;46;19935;31
2022/05/01 06:14:20;;;;;;;;;;;14.10;99.90;;;;;;2622539;46;20548;31
2022/05/01 06:16:54;;;;;;;;;;;14.40;99.90;;;;;;2603846;54;19935;31
2022/05/01 06:19:31;;;;;;;;;;;14.60;99.90;;;;;;2603666;54;19996;31
2022/05/01 06:22:05;;;;;;;;;;;14.70;99.90;;;;;;2603801;54;20005;31
2022/05/01 06:24:39;;;;;;;;;;;14.90;99.90;;;;;;2621598;46;20010;31
2022/05/01 06:27:13;;;;;;;;;;;15.10;99.90;;;;;;2603758;54;20659;31
2022/05/01 06:29:47;;;;;;;;;;;15.20;99.90;;;;;;2603871;54;20017;31
2022/05/01 06:32:22;;;;;;;;;;;15.40;99.90;;;;;;2603810;54;19939;31
2022/05/01 06:34:59;;;;;;;;;;;15.50;99.90;;;;;;2622334;46;19934;31
2022/05/01 06:37:38;;;;;;;;;;;15.60;99.90;;;;;;2622102;46;20775;31
2022/05/01 06:40:12;;;;;;;;;;;15.70;99.90;;;;;;2622309;46;20707;31
2022/05/01 06:42:46;;;;;;;;;;;15.90;99.90;;;;;;2603982;54;19934;31
2022/05/01 06:45:20;;;;;;;;;;;16.00;99.90;;;;;;2702624;39;20451;31
2022/05/01 06:47:54;;;;;;;;;;;16.20;99.90;;;;;;2603723;54;19962;31
2022/05/01 06:50:31;;;;;;;;;;;16.40;99.90;;;;;;2622269;46;19935;31
2022/05/01 06:53:05;;;;;;;;;;;16.60;99.20;;;;;;2603771;54;19934;31
2022/05/01 06:55:40;;;;;;;;;;;16.80;98.80;;;;;;2604012;54;19935;31
2022/05/01 06:58:14;;;;;;;;;;;16.90;98.10;;;;;;2603738;54;20801;31
2022/05/01 07:00:49;;;;;;;;;;;16.90;97.70;;;;;;2603672;54;19942;31
2022/05/01 07:03:21;;;;;;;;;;;16.90;97.10;;;;;;2622244;46;20745;31
2022/05/01 07:06:00;;;;;;;;;;;16.70;98.20;;;;;;2621951;46;19973;31
2022/05/01 07:08:34;;;;;;;;;;;16.70;97.90;;;;;;2604082;54;19935;31
2022/05/01 07:11:09;;;;;;;;;;;16.70;97.50;;;;;;2603741;54;19942;31
2022/05/01 07:13:43;;;;;;;;;;;16.70;97.50;;;;;;2603565;54;20796;31
2022/05/01 07:16:19;;;;;;;;;;;16.60;97.40;;;;;;2603847;54;19935;31
2022/05/01 07:18:53;;;;;;;;;;;16.60;97.30;;;;;;2622457;46;19960;31
2022/05/01 07:21:30;;;;;;;;;;;16.70;97.80;;;;;;2603636;54;20060;31
2022/05/01 07:24:04;;;;;;;;;;;16.90;98.30;;;;;;2622321;46;20729;31
2022/05/01 07:26:38;;;;;;;;;;;17.10;97.40;;;;;;2603741;54;19947;31
2022/05/01 07:29:12;;;;;;;;;;;17.30;97.30;;;;;;2603932;54;19934;31
2022/05/01 07:31:46;;;;;;;;;;;17.40;96.70;;;;;;2603633;54;19985;31
2022/05/01 07:34:20;;;;;;;;;;;17.40;96.30;;;;;;2622140;46;19942;31
2022/05/01 07:36:57;;;;;;;;;;;17.50;96.10;;;;;;2603901;54;20000;31
2022/05/01 07:39:31;;;;;;;;;;;17.70;96.20;;;;;;2622406;46;19942;31
2022/05/01 07:42:05;;;;;;;;;;;17.60;95.50;;;;;;2603722;54;20036;31
2022/05/01 07:44:38;;;;;;;;;;;17.50;95.10;;;;;;2621686;46;20017;31
2022/05/01 07:47:12;;;;;;;;;;;17.50;95.50;;;;;;2603555;54;19961;31
2022/05/01 07:49:46;;;;;;;;;;;17.60;94.90;;;;;;2603708;54;19942;31
2022/05/01 07:52:25;;;;;;;;;;;17.60;95.00;;;;;;2603532;54;19957;31
2022/05/01 07:54:59;;;;;;;;;;;17.70;95.10;;;;;;2603606;54;19935;31
2022/05/01 07:57:33;;;;;;;;;;;17.90;95.10;;;;;;2603831;54;19935;31
2022/05/01 08:00:08;;;;;;;;;;;18.10;94.90;;;;;;2603749;54;19941;31
2022/05/01 08:05:31;;;;;;;;;;;18.50;94.10;;;;;;2603698;54;19982;31
2022/05/01 08:08:09;;;;;;;;;;;18.70;93.70;;;;;;2622022;47;19942;31
2022/05/01 08:10:43;;;;;;;;;;;18.70;93.30;;;;;;2604210;47;20857;31
2022/05/01 08:13:17;;;;;;;;;;;18.80;93.30;;;;;;2604343;54;20738;31
2022/05/01 08:15:50;;;;;;;;;;;18.80;93.30;;;;;;2703010;39;20943;31
2022/05/01 08:21:10;;;;;;;;;;;19.10;92.60;;;;;;2604327;54;19934;31
2022/05/01 08:23:47;;;;;;;;;;;19.20;92.10;;;;;;2622889;46;20662;31
2022/05/01 08:26:22;;;;;;;;;;;19.20;92.30;;;;;;2604365;54;19935;31
2022/05/01 08:28:57;;;;;;;;;;;19.20;92.20;;;;;;2622862;46;19946;31
2022/05/01 08:31:31;;;;;;;;;;;19.50;92.50;;;;;;2622773;46;19935;31
2022/05/01 08:34:05;;;;;;;;;;;19.50;92.00;;;;;;2622375;46;20693;31
2022/05/01 08:36:39;;;;;;;;;;;19.50;91.50;;;;;;2604243;54;20780;31
2022/05/01 08:39:16;;;;;;;;;;;19.70;91.20;;;;;;2604400;54;20771;31
2022/05/01 08:41:48;;;;;;;;;;;19.80;91.80;;;;;;2622826;46;19990;31
2022/05/01 08:44:24;;;;;;;;;;;19.90;91.30;;;;;;2604243;54;19942;31
2022/05/01 08:46:59;;;;;;;;;;;19.90;91.80;;;;;;2604228;54;19942;31
2022/05/01 08:49:34;;;;;;;;;;;20.00;91.20;;;;;;2604307;54;20808;31
2022/05/01 08:52:11;;;;;;;;;;;20.20;91.10;;;;;;2604340;54;19957;31
2022/05/01 08:54:46;;;;;;;;;;;20.40;90.20;;;;;;2604184;54;20789;31
2022/05/01 08:57:21;;;;;;;;;;;20.50;89.90;;;;;;2619046;46;20750;31
2022/05/01 08:59:56;;;;;;;;;;;20.70;90.80;;;;;;2622973;46;19935;31
2022/05/01 09:02:33;;;;;;;;;;;20.90;89.90;;;;;;2622724;46;20741;31
2022/05/01 09:05:08;;;;;;;;;;;21.00;88.20;;;;;;2622607;46;19939;31
2022/05/01 09:07:42;;;;;;;;;;;21.30;89.20;;;;;;2604021;54;21288;31
2022/05/01 09:10:19;;;;;;;;;;;21.40;86.00;;;;;;2604112;54;19941;31
2022/05/01 09:12:53;;;;;;;;;;;21.40;85.90;;;;;;2604181;54;19934;31
2022/05/01 09:15:31;;;;;;;;;;;21.60;87.70;;;;;;2622470;46;19934;31
2022/05/01 09:18:05;;;;;;;;;;;21.80;85.00;;;;;;2622373;46;20494;31
2022/05/01 09:20:42;;;;;;;;;;;21.80;83.70;;;;;;2604325;54;19935;31
2022/05/01 09:23:16;;;;;;;;;;;21.70;82.90;;;;;;2604121;54;19942;31
2022/05/01 09:26:00;;;;;;;;;;;21.90;83.30;;;;;;2603807;54;19989;31
2022/05/01 09:28:38;;;;;;;;;;;21.90;82.60;;;;;;2604029;54;19997;31
2022/05/01 09:31:12;;;;;;;;;;;22.10;82.40;;;;;;2622491;46;19942;31
2022/05/01 09:33:46;;;;;;;;;;;22.10;79.90;;;;;;2622558;46;20752;31
2022/05/01 09:36:33;;;;;;;;;;;22.00;79.00;;;;;;2702753;39;21048;31
2022/05/01 09:39:07;;;;;;;;;;;22.00;79.10;;;;;;2604368;54;19942;31
2022/05/01 09:41:44;;;;;;;;;;;22.10;79.80;;;;;;2622682;46;19946;31
2022/05/01 09:44:19;;;;;;;;;;;22.10;79.00;;;;;;2604198;54;19934;31
2022/05/01 09:46:54;;;;;;;;;;;22.20;79.00;;;;;;2623027;46;20701;31
2022/05/01 09:49:28;;;;;;;;;;;22.40;80.10;;;;;;2622749;46;19935;31
2022/05/01 09:52:02;;;;;;;;;;;22.50;78.40;;;;;;2604050;54;20737;31
2022/05/01 09:54:36;;;;;;;;;;;22.60;78.20;;;;;;2604043;54;19935;31
2022/05/01 09:57:24;;;;;;;;;;;22.70;75.60;;;;;;2604142;54;19934;31
2022/05/01 09:59:59;;;;;;;;;;;22.60;77.00;;;;;;2622458;46;19941;31
2022/05/01 10:02:31;;;;;;;;;;;22.50;75.80;;;;;;2603652;54;19989;31
2022/05/01 10:05:06;;;;;;;;;;;22.60;75.30;;;;;;2603868;54;20684;31
2022/05/01 10:07:40;;;;;;;;;;;22.60;74.90;;;;;;2604026;54;19934;31
2022/05/01 10:10:14;;;;;;;;;;;22.80;74.40;;;;;;2622531;46;19935;31
2022/05/01 10:12:52;;;;;;;;;;;23.10;74.90;;;;;;2604004;54;20746;31
2022/05/01 10:15:24;;;;;;;;;;;23.20;72.70;;;;;;2604156;54;19941;31
2022/05/01 10:17:59;;;;;;;;;;;23.20;72.80;;;;;;2773813;31;21195;31
2022/05/01 10:20:34;;;;;;;;;;;23.20;71.40;;;;;;2603935;54;19935;31
2022/05/01 10:23:08;;;;;;;;;;;23.10;70.40;;;;;;2603877;54;20785;31
2022/05/01 10:25:50;;;;;;;;;;;23.20;72.10;;;;;;2604133;54;19993;31
2022/05/01 10:28:37;;;;;;;;;;;23.30;70.20;;;;;;2622254;46;19949;31
2022/05/01 10:34:09;;;;;;;;;;;23.10;71.30;;;;;;2622539;46;19935;31
2022/05/01 10:37:23;;;;;;;;;;;23.00;71.50;;;;;;2603493;54;19935;31
2022/05/01 10:39:57;;;;;;;;;;;23.10;70.80;;;;;;2622491;46;19946;31
2022/05/01 10:42:36;;;;;;;;;;;23.20;71.60;;;;;;2702475;39;20938;31
2022/05/01 10:45:25;;;;;;;;;;;23.30;71.90;;;;;;2603895;54;21768;31
2022/05/01 10:47:58;;;;;;;;;;;23.30;71.80;;;;;;2603886;54;19942;31
2022/05/01 10:50:35;;;;;;;;;;;23.30;71.10;;;;;;2603754;54;20781;31
2022/05/01 10:53:09;;;;;;;;;;;23.60;72.60;;;;;;2622271;46;20752;31
2022/05/01 10:55:48;;;;;;;;;;;23.60;71.00;;;;;;2622504;46;19935;31
2022/05/01 10:58:22;;;;;;;;;;;23.60;69.50;;;;;;2603561;54;20038;31
2022/05/01 11:00:57;;;;;;;;;;;23.50;69.10;;;;;;2603885;54;20792;31
2022/05/01 11:03:33;;;;;;;;;;;23.30;68.90;;;;;;2622314;46;19942;31
2022/05/01 11:06:14;;;;;;;;;;;23.20;70.10;;;;;;2622086;46;19934;31
2022/05/01 11:08:50;;;;;;;;;;;23.20;69.90;;;;;;2603455;54;19941;31
2022/05/01 11:11:25;;;;;;;;;;;23.20;69.50;;;;;;2701968;39;21281;31
2022/05/01 11:13:59;;;;;;;;;;;23.20;70.50;;;;;;2622251;46;19942;31
2022/05/01 11:16:51;;;;;;;;;;;23.00;69.50;;;;;;2622030;46;19965;31
2022/05/01 11:19:30;;;;;;;;;;;22.90;70.40;;;;;;2603680;54;19935;31
2022/05/01 11:22:09;;;;;;;;;;;22.60;71.10;;;;;;2603840;54;20808;31
2022/05/01 11:24:43;;;;;;;;;;;22.40;70.30;;;;;;2603680;54;19935;31
2022/05/01 11:27:18;;;;;;;;;;;22.40;70.20;;;;;;2622091;46;20817;31
2022/05/01 11:30:07;;;;;;;;;;;22.40;71.10;;;;;;2603700;54;19934;31
2022/05/01 11:32:44;;;;;;;;;;;22.60;73.00;;;;;;2622425;46;19934;31
2022/05/01 11:35:19;;;;;;;;;;;22.80;73.80;;;;;;2603697;54;19935;31
2022/05/01 11:37:53;;;;;;;;;;;22.90;73.00;;;;;;2603465;54;19969;31
2022/05/01 11:40:31;;;;;;;;;;;23.10;71.30;;;;;;2702226;39;20408;31
2022/05/01 11:43:21;;;;;;;;;;;23.20;71.00;;;;;;2622100;46;19946;31
2022/05/01 11:45:57;;;;;;;;;;;23.00;69.20;;;;;;2622096;46;19998;31
2022/05/01 11:48:31;;;;;;;;;;;23.00;71.90;;;;;;2621744;46;20734;31
2022/05/01 11:51:06;;;;;;;;;;;23.00;70.40;;;;;;2622214;46;19946;31
2022/05/01 11:53:38;;;;;;;;;;;22.80;69.60;;;;;;2603853;54;19942;31
2022/05/01 12:04:35;;;;;;;;;;;22.70;70.10;;;;;;2603524;54;20775;31
2022/05/01 12:07:11;;;;;;;;;;;22.90;70.30;;;;;;2603649;54;19942;31
2022/05/01 12:09:45;;;;;;;;;;;22.90;70.10;;;;;;2603387;54;20776;31
2022/05/01 12:12:22;;;;;;;;;;;22.90;70.20;;;;;;2622189;47;19934;31
2022/05/01 12:14:57;;;;;;;;;;;22.70;70.30;;;;;;2603661;54;19934;31
2022/05/01 12:17:32;;;;;;;;;;;22.60;69.50;;;;;;2603271;54;20450;31
2022/05/01 12:20:07;;;;;;;;;;;22.60;69.60;;;;;;2603512;54;20874;31
2022/05/01 12:22:43;;;;;;;;;;;22.60;70.60;;;;;;2603606;54;19931;31
2022/05/01 12:25:18;;;;;;;;;;;22.70;70.50;;;;;;2622204;47;20858;31
2022/05/01 12:27:55;;;;;;;;;;;22.60;70.10;;;;;;2622135;47;19986;31
2022/05/01 12:30:32;;;;;;;;;;;22.60;70.80;;;;;;2603268;54;19989;31
2022/05/01 12:33:06;;;;;;;;;;;22.70;71.00;;;;;;2603247;54;20748;31
2022/05/01 12:35:54;;;;;;;;;;;22.60;69.10;;;;;;2603710;54;19942;31
2022/05/01 12:38:28;;;;;;;;;;;22.50;69.00;;;;;;2621775;47;20666;31
2022/05/01 12:44:02;;;;;;;;;;;22.10;69.20;;;;;;2603328;54;19942;31
2022/05/01 12:46:39;;;;;;;;;;;22.20;71.50;;;;;;2701891;39;20477;31
2022/05/01 12:49:13;;;;;;;;;;;22.30;72.00;;;;;;2603416;54;19938;31
2022/05/01 12:54:20;;;;;;;;;;;22.60;70.10;;;;;;2603072;54;20511;31
2022/05/01 12:56:55;;;;;;;;;;;22.70;70.10;;;;;;2603399;54;19941;31
2022/05/01 12:59:34;;;;;;;;;;;22.60;69.70;;;;;;2603373;54;19942;31
2022/05/01 13:02:08;;;;;;;;;;;22.60;70.70;;;;;;2603634;54;19962;31
2022/05/01 13:04:43;;;;;;;;;;;22.60;70.10;;;;;;2605137;46;20753;31
2022/05/01 13:07:30;;;;;;;;;;;22.50;71.00;;;;;;2623039;46;20001;31
2022/05/01 13:10:05;;;;;;;;;;;22.50;69.70;;;;;;2604087;54;19942;31
2022/05/01 13:12:40;;;;;;;;;;;22.40;69.50;;;;;;2604241;54;19946;31
2022/05/01 13:15:18;;;;;;;;;;;22.30;69.90;;;;;;2611009;46;19934;31
2022/05/01 13:18:02;;;;;;;;;;;22.20;69.40;;;;;;2604293;54;19949;31
2022/05/01 13:20:37;;;;;;;;;;;22.20;70.40;;;;;;2702770;39;20328;31
2022/05/01 13:23:12;;;;;;;;;;;22.10;70.00;;;;;;2603487;54;20783;31
2022/05/01 13:25:47;;;;;;;;;;;22.10;70.00;;;;;;2604111;54;20813;31
2022/05/01 13:28:20;;;;;;;;;;;22.20;70.60;;;;;;2702748;39;21028;31
2022/05/01 13:30:58;;;;;;;;;;;22.20;70.10;;;;;;2622086;46;20737;31
2022/05/01 13:33:35;;;;;;;;;;;22.10;70.40;;;;;;2604343;54;19938;31
2022/05/01 13:36:10;;;;;;;;;;;22.20;69.00;;;;;;2622819;46;20766;31
2022/05/01 13:38:45;;;;;;;;;;;22.10;69.80;;;;;;2604071;54;20021;31
2022/05/01 13:46:58;;;;;;;;;;;22.00;69.10;;;;;;2604259;54;20470;31
2022/05/01 13:49:33;;;;;;;;;;;21.90;70.20;;;;;;2604121;54;19943;31
2022/05/01 13:52:09;;;;;;;;;;;21.90;70.30;;;;;;2622640;46;19993;31
2022/05/01 13:54:50;;;;;;;;;;;21.80;68.70;;;;;;2603931;54;19981;31
2022/05/01 13:57:24;;;;;;;;;;;21.80;70.30;;;;;;2702466;39;20413;31
2022/05/01 13:59:58;;;;;;;;;;;21.80;69.50;;;;;;2622658;46;19980;31
2022/05/01 14:02:35;;;;;;;;;;;21.80;68.80;;;;;;2603924;54;19941;31
2022/05/01 14:05:10;;;;;;;;;;;21.80;69.40;;;;;;2604337;54;19934;31
2022/05/01 14:07:43;;;;;;;;;;;21.80;69.60;;;;;;2604081;54;19942;31
2022/05/01 14:10:18;;;;;;;;;;;21.80;69.80;;;;;;2603982;54;21730;31
2022/05/01 14:12:51;;;;;;;;;;;21.70;68.70;;;;;;2603899;54;19957;31
2022/05/01 14:15:25;;;;;;;;;;;21.70;68.50;;;;;;2603809;54;19957;31
2022/05/01 14:18:02;;;;;;;;;;;21.60;68.80;;;;;;2622489;46;19934;31
2022/05/01 14:20:34;;;;;;;;;;;21.60;69.10;;;;;;2702932;39;22107;31
2022/05/01 14:23:09;;;;;;;;;;;21.60;69.50;;;;;;2622663;46;19935;31
2022/05/01 14:25:44;;;;;;;;;;;21.60;69.30;;;;;;2622191;46;20724;31
2022/05/01 14:28:16;;;;;;;;;;;21.60;69.30;;;;;;2721471;39;20869;31
2022/05/01 14:30:52;;;;;;;;;;;21.50;69.10;;;;;;2622301;46;19941;31
2022/05/01 14:33:30;;;;;;;;;;;21.50;68.60;;;;;;2604091;54;20668;31
2022/05/01 14:36:04;;;;;;;;;;;21.50;69.30;;;;;;2604080;54;19941;31
2022/05/01 14:38:40;;;;;;;;;;;21.50;68.70;;;;;;2603950;54;20749;31
2022/05/01 14:41:14;;;;;;;;;;;21.50;68.10;;;;;;2603796;54;20806;31
2022/05/01 14:43:48;;;;;;;;;;;21.40;69.10;;;;;;2622510;46;19939;31
2022/05/01 14:46:22;;;;;;;;;;;21.40;68.90;;;;;;2622596;46;19941;31
2022/05/01 14:49:06;;;;;;;;;;;21.40;68.20;;;;;;2603559;54;20714;31
2022/05/01 14:51:41;;;;;;;;;;;21.40;69.60;;;;;;2622377;46;20767;31
2022/05/01 14:54:16;;;;;;;;;;;21.50;71.20;;;;;;2702076;39;20358;31
2022/05/01 14:56:49;;;;;;;;;;;21.50;70.70;;;;;;2603651;54;19935;31
2022/05/01 15:07:47;;;;;;;;;;;21.50;69.00;;;;;;2702126;39;20457;31
2022/05/01 15:10:22;;;;;;;;;;;21.50;69.70;;;;;;2603897;54;20809;31
2022/05/01 15:13:00;;;;;;;;;;;21.40;71.40;;;;;;2604110;54;19934;31
2022/05/01 15:15:35;;;;;;;;;;;21.30;69.90;;;;;;2603622;54;19935;31
2022/05/01 15:18:09;;;;;;;;;;;21.20;70.20;;;;;;2603495;54;19938;31
2022/05/01 15:20:48;;;;;;;;;;;21.20;70.60;;;;;;2603886;54;19942;31
2022/05/01 15:23:24;;;;;;;;;;;21.20;70.70;;;;;;2702313;39;20449;31
2022/05/01 15:26:00;;;;;;;;;;;21.20;71.20;;;;;;2603569;54;20862;31
2022/05/01 15:28:35;;;;;;;;;;;21.20;70.10;;;;;;2619668;46;19935;31
2022/05/01 15:31:08;;;;;;;;;;;21.20;70.80;;;;;;2603630;54;19941;31
2022/05/01 15:33:45;;;;;;;;;;;21.20;69.50;;;;;;2603853;54;20450;31
2022/05/01 15:36:24;;;;;;;;;;;21.30;69.80;;;;;;2604024;54;19989;31
2022/05/01 15:39:00;;;;;;;;;;;21.30;70.80;;;;;;2603600;54;19961;31
2022/05/01 15:41:37;;;;;;;;;;;21.30;72.30;;;;;;2603553;54;20473;31
2022/05/01 15:44:12;;;;;;;;;;;21.30;70.30;;;;;;2603759;54;19957;31
2022/05/01 15:46:55;;;;;;;;;;;21.40;69.50;;;;;;2603817;54;20025;31
2022/05/01 15:55:04;;;;;;;;;;;21.30;68.90;;;;;;2622185;46;20796;31
2022/05/01 15:57:39;;;;;;;;;;;21.30;70.00;;;;;;2603506;54;19935;31
2022/05/01 16:00:15;;;;;;;;;;;21.30;68.60;;;;;;2603697;54;20579;31
2022/05/01 16:02:52;;;;;;;;;;;21.20;67.40;;;;;;2603589;54;19942;31
2022/05/01 16:05:27;;;;;;;;;;;21.20;69.60;;;;;;2603489;54;20470;31
2022/05/01 16:08:08;;;;;;;;;;;21.20;69.50;;;;;;2603581;54;20763;31
2022/05/01 16:10:43;;;;;;;;;;;21.10;71.70;;;;;;2603522;54;20758;31
2022/05/01 16:13:18;;;;;;;;;;;21.00;71.10;;;;;;2702251;39;20943;31
2022/05/01 16:15:54;;;;;;;;;;;20.90;70.70;;;;;;2603619;54;19998;31
2022/05/01 16:18:50;;;;;;;;;;;20.90;70.70;;;;;;2621814;47;19934;31
2022/05/01 16:21:27;;;;;;;;;;;20.90;71.50;;;;;;2602897;54;19942;31